Terminal Aerodrome Forecast
Issued by NWS

Home | Current Version | Previous Version | Text Only | Print | Product List | Glossary On
Versions: 1 2 3 4 5 6 7 8 9 10 11 12 13
099
FTUS45 KABQ 280521
TAFLVS
TAF
KLVS 280521Z 2806/2906 20008KT P6SM VCSH SCT070 OVC100
     FM280900 16008KT P6SM VCSH BKN050 OVC080
     FM281500 16015KT P6SM VCSH BKN035 OVC070
     FM282100 13015KT P6SM VCSH OVC050=

USA.gov is the U.S. government's official web portal to all federal, state and local government web resources and services.